Weather at Minatitlán/Coatzacoalcos National Airport

Public forecast

Using degrees Celsius for public forecast. Weather courtesy of forecast.io.

Current aviation weather report (METAR) for Minatitlán/Coatzacoalcos National Airport

Report is more than 6 hours old.

Retrieved 2021/01/19 00:41 UTC (10 hours ago):

MMMT 190041Z 04006KT 7SM SCT160 23/14 A3000 RMK 8/010

Aviation forecast (TAF) for Minatitlán/Coatzacoalcos National Airport

Retrieved 2021/01/19 06:14 UTC (4 hours ago):

TAF MMMT 190506Z 1906/2006 04005KT 6SM HZ SCT020 BKN100 TEMPO 1912/1915 3SM HZ BKN020 FM191800 03010KT P6SM SCT030 BKN100 FM200300 03005KT 6SM HZ SCT020 SCT100